Time;durP1;ratioP1;P1;durP2;ratioP2;P2;SDS_P1;SDS_P2;PMS_P1;PMS_P2;Temp;Humidity;BMP_temperature;BMP_pressure;BME280_temperature;BME280_humidity;BME280_pressure;Samples;Min_cycle;Max_cycle;Signal;HPM_P1;HPM_P2
2023/11/03 00:01:15;;;;;;;5.50;2.60;;;;;;;8.15;85.87;99862.59;5078076;28;20050;-76
2023/11/03 00:03:42;;;;;;;11.85;3.83;;;;;;;8.20;85.66;99857.28;5079055;28;20040;-73
2023/11/03 00:06:09;;;;;;;7.93;3.30;;;;;;;8.20;85.71;99868.53;5081086;28;20101;-73
2023/11/03 00:08:36;;;;;;;7.07;3.00;;;;;;;8.21;85.25;99854.63;5074743;28;20060;-72
2023/11/03 00:11:04;;;;;;;10.38;3.45;;;;;;;8.22;85.30;99858.94;5084722;28;20048;-72
2023/11/03 00:13:33;;;;;;;7.97;3.00;;;;;;;8.23;85.33;99862.41;5081019;28;20055;-74
2023/11/03 00:16:00;;;;;;;9.30;2.60;;;;;;;8.24;85.34;99851.09;5085657;28;20045;-73
2023/11/03 00:18:28;;;;;;;9.40;3.33;;;;;;;8.25;85.28;99855.41;5078969;28;20518;-72
2023/11/03 00:20:55;;;;;;;7.15;2.60;;;;;;;8.25;85.34;99851.09;5084149;28;20051;-72
2023/11/03 00:23:22;;;;;;;8.00;3.17;;;;;;;8.26;85.50;99851.94;5083483;28;20044;-70
2023/11/03 00:25:49;;;;;;;8.73;4.40;;;;;;;8.26;85.28;99850.19;5079910;28;20053;-70
2023/11/03 00:28:16;;;;;;;7.32;3.00;;;;;;;8.29;85.15;99857.06;5078321;28;20121;-70
2023/11/03 00:30:43;;;;;;;7.88;3.17;;;;;;;8.29;85.24;99838.84;5078034;28;20056;-70
2023/11/03 00:33:10;;;;;;;8.77;3.13;;;;;;;8.31;85.37;99839.63;5086899;28;20072;-70
2023/11/03 00:35:39;;;;;;;8.25;3.33;;;;;;;8.34;85.17;99844.81;5083481;28;20055;-70
2023/11/03 00:38:06;;;;;;;8.25;2.65;;;;;;;8.34;84.90;99832.63;5083361;28;20051;-70
2023/11/03 00:40:33;;;;;;;8.07;3.15;;;;;;;8.35;84.95;99820.47;5076254;28;20051;-70
2023/11/03 00:43:02;;;;;;;8.25;3.03;;;;;;;8.38;84.88;99819.56;5082283;28;20455;-70
2023/11/03 00:45:29;;;;;;;11.13;3.22;;;;;;;8.36;84.79;99809.16;5075510;28;20511;-70
2023/11/03 00:47:55;;;;;;;4.68;3.00;;;;;;;8.38;85.03;99810.00;5077323;28;20049;-70
2023/11/03 00:50:22;;;;;;;9.35;3.78;;;;;;;8.39;84.84;99795.25;5077536;28;20055;-71
2023/11/03 00:52:50;;;;;;;16.33;4.93;;;;;;;8.41;84.97;99794.31;5082541;28;20059;-70
2023/11/03 00:55:17;;;;;;;8.75;3.60;;;;;;;8.42;84.55;99789.97;5078827;28;20774;-70
2023/11/03 00:57:44;;;;;;;6.50;3.13;;;;;;;8.43;84.85;99791.69;5073389;28;20052;-70
2023/11/03 01:00:13;;;;;;;11.43;3.08;;;;;;;8.44;84.77;99783.84;5068437;28;20044;-70
2023/11/03 01:02:41;;;;;;;7.45;4.25;;;;;;;8.45;84.71;99785.56;5069923;28;20121;-70
2023/11/03 01:05:10;;;;;;;6.53;2.85;;;;;;;8.47;84.55;99785.50;5071401;28;20056;-70
2023/11/03 01:07:37;;;;;;;12.60;2.95;;;;;;;8.48;84.41;99780.28;5067049;28;20048;-70
2023/11/03 01:10:07;;;;;;;9.68;2.97;;;;;;;8.49;84.38;99778.53;5072041;28;20094;-70
2023/11/03 01:12:34;;;;;;;11.82;3.17;;;;;;;8.49;84.54;99775.94;5071545;28;20047;-70
2023/11/03 01:15:05;;;;;;;10.25;3.20;;;;;;;8.50;84.29;99770.66;5075153;28;20054;-70
2023/11/03 01:17:32;;;;;;;6.50;2.75;;;;;;;8.49;84.09;99770.72;5074136;28;20048;-71
2023/11/03 01:19:59;;;;;;;7.68;3.15;;;;;;;8.51;84.38;99772.41;5067217;28;20056;-72
2023/11/03 01:22:26;;;;;;;6.78;3.50;;;;;;;8.53;84.26;99772.34;5072481;28;20040;-70
2023/11/03 01:24:52;;;;;;;9.27;4.38;;;;;;;8.51;83.95;99764.59;5075772;28;20095;-69
2023/11/03 01:27:21;;;;;;;6.20;3.80;;;;;;;8.52;83.97;99761.06;5081343;28;20052;-69
2023/11/03 01:29:51;;;;;;;9.15;3.55;;;;;;;8.50;84.37;99747.25;5083946;28;20055;-69
2023/11/03 01:32:18;;;;;;;8.75;3.13;;;;;;;8.54;84.14;99748.03;5075396;28;20147;-70
2023/11/03 01:34:45;;;;;;;7.57;4.60;;;;;;;8.55;83.99;99750.56;5082079;28;20048;-70
2023/11/03 01:37:13;;;;;;;11.98;4.53;;;;;;;8.55;84.04;99741.91;5076831;28;20041;-69
2023/11/03 01:39:40;;;;;;;5.75;3.63;;;;;;;8.54;83.81;99742.84;5077793;28;20083;-69
2023/11/03 01:42:07;;;;;;;9.02;5.10;;;;;;;8.58;83.85;99754.00;5078231;28;20523;-69
2023/11/03 01:44:35;;;;;;;10.13;3.90;;;;;;;8.51;83.83;99737.72;5082346;28;20044;-69
2023/11/03 01:47:03;;;;;;;14.40;4.85;;;;;;;8.59;83.77;99747.91;5079421;28;20051;-70
2023/11/03 01:49:30;;;;;;;10.93;5.00;;;;;;;8.59;83.77;99747.91;5081075;28;20059;-69
2023/11/03 01:51:57;;;;;;;7.63;4.18;;;;;;;8.56;83.55;99746.22;5074521;28;20047;-69
2023/11/03 01:54:24;;;;;;;12.32;4.47;;;;;;;8.60;84.07;99747.03;5082390;28;20143;-70
2023/11/03 01:56:52;;;;;;;13.70;4.45;;;;;;;8.61;83.70;99740.91;5077744;28;20048;-69
2023/11/03 01:59:20;;;;;;;9.82;4.97;;;;;;;8.61;83.82;99730.50;5072663;28;20511;-69
2023/11/03 02:01:51;;;;;;;9.88;4.43;;;;;;;8.62;83.40;99738.25;5072738;28;20048;-69
2023/11/03 02:04:19;;;;;;;15.05;5.35;;;;;;;8.62;83.38;99714.81;5081303;28;20447;-69
2023/11/03 02:06:46;;;;;;;9.35;4.90;;;;;;;8.62;83.17;99707.00;5081580;28;20048;-69
2023/11/03 02:09:13;;;;;;;11.75;4.90;;;;;;;8.61;83.58;99709.66;5082025;28;20143;-70
2023/11/03 02:11:43;;;;;;;14.05;5.43;;;;;;;8.63;83.74;99697.47;5075389;28;20053;-70
2023/11/03 02:14:10;;;;;;;9.77;4.78;;;;;;;8.64;83.36;99712.19;5074889;28;20052;-69
2023/11/03 02:16:37;;;;;;;15.15;5.60;;;;;;;8.64;83.63;99699.16;5080465;28;20054;-69
2023/11/03 02:19:07;;;;;;;10.35;3.95;;;;;;;8.64;83.44;99687.00;5077127;28;20049;-70
2023/11/03 02:21:36;;;;;;;8.02;4.82;;;;;;;8.65;83.55;99683.53;5078279;28;20044;-70
2023/11/03 02:24:05;;;;;;;15.13;5.75;;;;;;;8.66;83.12;99684.38;5082407;28;20044;-73
2023/11/03 02:26:32;;;;;;;9.30;4.80;;;;;;;8.62;83.33;99673.16;5077805;28;20044;-72
2023/11/03 02:28:59;;;;;;;12.18;4.70;;;;;;;8.66;83.03;99676.56;5078052;28;20048;-73
2023/11/03 02:31:26;;;;;;;15.80;4.97;;;;;;;8.68;83.45;99683.44;5080827;28;20269;-73
2023/11/03 02:33:53;;;;;;;8.50;5.10;;;;;;;8.65;83.03;99667.91;5078682;28;20043;-72
2023/11/03 02:36:20;;;;;;;9.88;4.97;;;;;;;8.68;83.14;99678.22;5081126;28;20105;-72
2023/11/03 02:38:47;;;;;;;13.18;4.78;;;;;;;8.69;82.91;99664.31;5083251;28;20054;-73
2023/11/03 02:41:15;;;;;;;7.97;4.18;;;;;;;8.69;83.28;99661.69;5087034;28;20165;-74
2023/11/03 02:43:42;;;;;;;15.60;5.22;;;;;;;8.70;83.21;99666.00;5083368;28;20049;-76
2023/11/03 02:46:09;;;;;;;13.32;4.88;;;;;;;8.70;83.10;99654.72;5082212;28;20044;-76
2023/11/03 02:48:36;;;;;;;11.10;5.25;;;;;;;8.70;82.78;99663.38;5081834;28;20455;-76
2023/11/03 02:51:04;;;;;;;10.20;5.15;;;;;;;8.72;82.76;99673.78;5086141;28;20058;-77
2023/11/03 02:53:31;;;;;;;11.57;5.65;;;;;;;8.73;82.92;99672.88;5082652;28;20455;-76
2023/11/03 02:55:58;;;;;;;10.10;5.07;;;;;;;8.72;82.41;99669.41;5079522;28;20048;-77
2023/11/03 02:58:29;;;;;;;8.63;4.88;;;;;;;8.72;83.27;99668.56;5076595;28;20512;-76
2023/11/03 03:00:56;;;;;;;10.18;5.43;;;;;;;8.74;82.80;99672.00;5082036;28;20055;-77
2023/11/03 03:03:23;;;;;;;12.68;5.20;;;;;;;8.65;82.74;99646.19;5078074;28;20051;-77
2023/11/03 03:05:50;;;;;;;12.32;5.03;;;;;;;8.74;82.76;99662.44;5076065;28;20054;-76
2023/11/03 03:08:16;;;;;;;12.43;4.95;;;;;;;8.74;82.70;99659.81;5082335;28;20048;-76
2023/11/03 03:10:43;;;;;;;9.07;5.13;;;;;;;8.75;82.57;99650.25;5085839;28;20056;-75
2023/11/03 03:13:10;;;;;;;13.23;5.00;;;;;;;8.71;82.77;99646.03;5083746;28;20051;-76
2023/11/03 03:15:38;;;;;;;9.45;4.80;;;;;;;8.75;83.00;99643.28;5082331;28;20072;-76
2023/11/03 03:18:05;;;;;;;8.27;5.18;;;;;;;8.76;82.40;99644.13;5087079;28;20048;-76
2023/11/03 03:20:32;;;;;;;9.85;5.50;;;;;;;8.75;82.41;99640.69;5085874;28;20052;-76
2023/11/03 03:22:59;;;;;;;10.13;4.63;;;;;;;8.77;82.72;99638.06;5087079;28;20475;-76
2023/11/03 03:25:26;;;;;;;10.77;5.10;;;;;;;8.77;82.68;99630.25;5089520;28;20113;-76
2023/11/03 03:27:55;;;;;;;14.80;5.55;;;;;;;8.77;82.72;99627.63;5077381;28;20100;-74
2023/11/03 03:30:22;;;;;;;12.27;5.28;;;;;;;8.76;82.69;99618.94;5083557;28;20044;-76
2023/11/03 03:32:50;;;;;;;15.00;6.00;;;;;;;8.77;82.64;99610.25;5086112;28;20585;-72
2023/11/03 03:35:17;;;;;;;11.48;5.30;;;;;;;8.79;82.65;99607.59;5083677;28;20047;-73
2023/11/03 03:37:44;;;;;;;11.45;5.22;;;;;;;8.78;82.44;99614.56;5082969;28;20054;-73
2023/11/03 03:40:13;;;;;;;8.18;5.07;;;;;;;8.79;82.40;99605.00;5091854;28;20055;-73
2023/11/03 03:42:39;;;;;;;13.20;5.15;;;;;;;8.79;82.23;99597.19;5087236;28;20497;-72
2023/11/03 03:45:08;;;;;;;12.85;6.03;;;;;;;8.76;82.69;99582.50;5086349;28;20055;-73
2023/11/03 03:47:35;;;;;;;12.30;5.72;;;;;;;8.79;82.35;99586.75;5082539;28;20043;-73
2023/11/03 03:50:03;;;;;;;10.18;5.88;;;;;;;8.80;82.72;99587.63;5088833;28;20052;-72
2023/11/03 03:52:31;;;;;;;13.27;5.57;;;;;;;8.79;82.21;99586.75;5084211;28;20097;-71
2023/11/03 03:54:58;;;;;;;10.30;5.68;;;;;;;8.78;82.32;99575.50;5082204;28;20543;-72
2023/11/03 03:57:25;;;;;;;14.07;6.18;;;;;;;8.78;82.27;99572.91;5078886;28;20076;-72
2023/11/03 03:59:52;;;;;;;12.27;6.25;;;;;;;8.78;82.31;99570.28;5081998;28;20048;-72
2023/11/03 04:02:19;;;;;;;12.35;6.70;;;;;;;8.79;82.47;99571.13;5083763;28;20105;-73
2023/11/03 04:04:46;;;;;;;9.38;5.90;;;;;;;8.78;82.08;99572.91;5085222;28;20048;-72
2023/11/03 04:07:14;;;;;;;7.72;5.28;;;;;;;8.80;82.25;99567.66;5085586;28;20048;-73
2023/11/03 04:09:42;;;;;;;12.05;5.95;;;;;;;8.81;82.08;99573.72;5084017;28;20048;-74
2023/11/03 04:12:10;;;;;;;15.18;5.47;;;;;;;8.77;82.56;99560.78;5082689;28;20044;-73
2023/11/03 04:14:37;;;;;;;15.98;6.30;;;;;;;8.80;82.32;99561.59;5081195;28;20044;-73
2023/11/03 04:17:05;;;;;;;14.95;6.10;;;;;;;8.80;82.31;99557.25;5085773;28;20044;-73
2023/11/03 04:19:32;;;;;;;13.57;6.28;;;;;;;8.77;82.32;99560.78;5083435;28;20117;-73
2023/11/03 04:21:59;;;;;;;12.15;5.32;;;;;;;8.76;82.54;99553.84;5080671;28;20052;-73
2023/11/03 04:24:28;;;;;;;9.80;4.97;;;;;;;8.80;82.04;99564.19;5084425;28;20488;-73
2023/11/03 04:26:55;;;;;;;10.95;5.43;;;;;;;8.81;82.43;99560.69;5084897;28;20044;-73
2023/11/03 04:29:21;;;;;;;15.57;5.50;;;;;;;8.82;81.98;99564.97;5086010;28;20055;-72
2023/11/03 04:31:48;;;;;;;12.13;5.38;;;;;;;8.81;82.31;99565.91;5084273;28;20051;-72
2023/11/03 04:34:15;;;;;;;9.10;5.47;;;;;;;8.81;82.42;99558.09;5082916;28;20489;-73
2023/11/03 04:36:42;;;;;;;11.95;5.45;;;;;;;8.80;82.28;99545.97;5086671;28;20044;-74
2023/11/03 04:39:09;;;;;;;14.40;5.07;;;;;;;8.80;82.37;99548.59;5086800;28;20043;-73
2023/11/03 04:41:37;;;;;;;14.55;4.68;;;;;;;8.76;81.70;99535.63;5079105;28;20052;-73
2023/11/03 04:44:05;;;;;;;12.20;5.10;;;;;;;8.79;82.05;99552.91;5084656;28;20051;-73
2023/11/03 04:46:32;;;;;;;10.02;6.05;;;;;;;8.81;81.95;99547.66;5085638;28;20044;-73
2023/11/03 04:48:59;;;;;;;17.02;5.57;;;;;;;8.77;82.38;99552.13;5083396;28;20041;-73
2023/11/03 04:51:26;;;;;;;14.15;5.20;;;;;;;8.81;82.31;99560.69;5083970;28;20086;-74
2023/11/03 04:53:53;;;;;;;7.50;4.60;;;;;;;8.77;82.11;99558.19;5082762;28;20559;-72
2023/11/03 04:56:20;;;;;;;13.90;5.28;;;;;;;8.78;81.96;99559.03;5085753;28;20127;-73
2023/11/03 04:58:50;;;;;;;9.43;5.28;;;;;;;8.76;82.43;99555.59;5082508;28;20045;-72
2023/11/03 05:01:18;;;;;;;12.40;6.43;;;;;;;8.77;81.96;99566.00;5083273;28;20049;-75
2023/11/03 05:03:45;;;;;;;11.88;5.53;;;;;;;8.80;82.06;99566.81;5084384;28;20097;-69
2023/11/03 05:06:12;;;;;;;13.25;6.10;;;;;;;8.78;82.24;99570.28;5080422;28;20036;-72
2023/11/03 05:08:39;;;;;;;14.73;5.65;;;;;;;8.76;82.15;99566.03;5075166;28;20126;-69
2023/11/03 05:11:06;;;;;;;14.43;6.32;;;;;;;8.77;82.26;99560.78;5079255;28;20413;-69
2023/11/03 05:13:33;;;;;;;9.23;5.55;;;;;;;8.80;82.35;99572.00;5080706;28;20055;-69
2023/11/03 05:16:05;;;;;;;14.18;6.78;;;;;;;8.80;82.07;99574.63;5078365;28;20044;-70
2023/11/03 05:18:32;;;;;;;17.40;6.18;;;;;;;8.79;82.15;99576.34;5080167;28;20094;-70
2023/11/03 05:20:59;;;;;;;13.65;6.72;;;;;;;8.80;82.11;99575.47;5075581;28;20049;-69
2023/11/03 05:23:26;;;;;;;13.80;6.97;;;;;;;8.80;82.29;99565.06;5076796;28;20121;-71
2023/11/03 05:25:53;;;;;;;12.98;5.72;;;;;;;8.80;82.02;99572.88;5078107;28;20086;-69
2023/11/03 05:28:21;;;;;;;15.73;5.75;;;;;;;8.76;82.33;99566.03;5078958;28;20041;-70
2023/11/03 05:30:48;;;;;;;17.08;6.00;;;;;;;8.79;82.25;99565.94;5074172;28;20049;-70
2023/11/03 05:33:17;;;;;;;13.30;6.22;;;;;;;8.81;82.14;99558.09;5075752;28;20058;-70
2023/11/03 05:35:44;;;;;;;13.88;6.80;;;;;;;8.80;81.87;99556.41;5079394;28;20481;-70
2023/11/03 05:38:11;;;;;;;13.20;6.22;;;;;;;8.81;82.39;99555.47;5073469;28;20541;-69
2023/11/03 05:40:39;;;;;;;14.13;6.13;;;;;;;8.80;82.16;99572.88;5071828;28;20050;-70
2023/11/03 05:43:06;;;;;;;18.40;7.60;;;;;;;8.81;82.32;99571.09;5079870;28;20040;-69
2023/11/03 05:45:33;;;;;;;14.25;6.32;;;;;;;8.81;82.21;99566.75;5077781;28;20048;-70
2023/11/03 05:48:00;;;;;;;13.27;6.10;;;;;;;8.81;81.93;99571.94;5072455;28;20059;-70
2023/11/03 05:50:28;;;;;;;9.13;5.28;;;;;;;8.81;82.20;99558.09;5078618;28;20054;-70
2023/11/03 05:52:55;;;;;;;12.43;5.22;;;;;;;8.80;82.02;99566.81;5074951;28;20040;-74
2023/11/03 05:55:22;;;;;;;10.93;5.50;;;;;;;8.81;82.09;99555.47;5072720;28;20428;-73
2023/11/03 05:57:49;;;;;;;11.52;4.65;;;;;;;8.82;82.22;99533.75;5079522;28;20452;-73
2023/11/03 06:00:16;;;;;;;11.98;5.50;;;;;;;8.81;81.76;99521.63;5074015;28;20050;-73
2023/11/03 06:02:43;;;;;;;12.05;4.45;;;;;;;8.76;82.08;99521.75;5078424;28;20129;-73
2023/11/03 06:05:12;;;;;;;12.40;5.60;;;;;;;8.82;82.01;99544.16;5079454;28;20051;-72
2023/11/03 06:07:40;;;;;;;13.52;5.80;;;;;;;8.82;81.75;99533.75;5079024;28;20135;-73
2023/11/03 06:10:08;;;;;;;12.07;5.68;;;;;;;8.82;81.77;99523.31;5076007;28;20503;-73
2023/11/03 06:12:35;;;;;;;11.80;6.10;;;;;;;8.82;82.04;99507.69;5079328;28;20084;-70
2023/11/03 06:15:02;;;;;;;12.50;5.90;;;;;;;8.82;81.98;99505.09;5079336;28;20050;-70
2023/11/03 06:17:29;;;;;;;8.23;4.68;;;;;;;8.81;82.02;99499.03;5081492;28;20052;-69
2023/11/03 06:19:56;;;;;;;15.20;5.20;;;;;;;8.82;81.93;99500.72;5075918;28;20048;-70
2023/11/03 06:22:23;;;;;;;13.57;5.13;;;;;;;8.81;82.11;99499.03;5075293;28;20048;-69
2023/11/03 06:24:51;;;;;;;10.02;5.05;;;;;;;8.81;81.91;99490.38;5073108;28;20060;-69
2023/11/03 06:27:18;;;;;;;11.82;4.88;;;;;;;8.81;81.64;99493.00;5059069;28;20511;-69
2023/11/03 06:29:44;;;;;;;9.55;4.75;;;;;;;8.80;81.82;99476.53;5065089;28;20052;-69
2023/11/03 06:32:11;;;;;;;12.45;5.15;;;;;;;8.81;81.72;99474.75;5061750;28;20059;-70
2023/11/03 06:34:39;;;;;;;11.05;5.00;;;;;;;8.80;82.12;99473.91;5059201;28;20053;-69
2023/11/03 06:37:06;;;;;;;10.77;5.00;;;;;;;8.81;81.84;99469.56;5053478;28;20076;-69
2023/11/03 06:39:33;;;;;;;8.32;5.07;;;;;;;8.80;81.98;99460.06;5053843;28;20084;-70
2023/11/03 06:42:01;;;;;;;12.85;4.97;;;;;;;8.80;81.95;99447.88;5056768;28;20057;-69
2023/11/03 06:44:28;;;;;;;10.55;4.82;;;;;;;8.81;81.47;99448.72;5060919;28;20548;-70
2023/11/03 06:46:55;;;;;;;10.23;5.75;;;;;;;8.79;81.38;99443.56;5055650;28;20048;-69
2023/11/03 06:49:22;;;;;;;12.57;5.90;;;;;;;8.81;81.76;99452.19;5060510;28;20045;-70
2023/11/03 06:51:49;;;;;;;12.07;5.60;;;;;;;8.81;81.50;99438.31;5066992;28;20558;-70
2023/11/03 06:54:16;;;;;;;9.63;4.75;;;;;;;8.82;81.60;99443.44;5067996;28;20065;-70
2023/11/03 06:56:43;;;;;;;6.93;3.13;;;;;;;8.82;81.80;99442.59;5061736;28;20047;-70
2023/11/03 06:59:11;;;;;;;15.52;5.80;;;;;;;8.83;81.56;99444.31;5068092;28;20064;-70
2023/11/03 07:01:38;;;;;;;11.13;5.15;;;;;;;8.82;81.48;99451.25;5063367;28;20512;-69
2023/11/03 07:04:07;;;;;;;17.83;5.03;;;;;;;8.82;81.90;99438.25;5064292;28;20045;-70
2023/11/03 07:06:34;;;;;;;9.55;4.35;;;;;;;8.84;81.86;99438.22;5061396;28;20702;-72
2023/11/03 07:09:02;;;;;;;11.20;4.90;;;;;;;8.81;81.66;99430.50;5060534;28;20048;-72
2023/11/03 07:11:30;;;;;;;19.13;6.95;;;;;;;8.84;81.51;99440.81;5061749;28;20106;-72
2023/11/03 07:13:57;;;;;;;12.50;5.78;;;;;;;8.83;81.69;99436.50;5063667;28;20116;-72
2023/11/03 07:16:25;;;;;;;6.97;3.70;;;;;;;8.83;81.61;99432.16;5067035;28;20391;-75
2023/11/03 07:18:52;;;;;;;10.70;4.95;;;;;;;8.84;81.55;99436.44;5062269;28;20045;-73
2023/11/03 07:21:19;;;;;;;12.38;6.47;;;;;;;8.82;81.34;99429.59;5061438;28;20106;-74
2023/11/03 07:23:46;;;;;;;15.18;5.97;;;;;;;8.85;81.75;99429.47;5063272;28;20044;-73
2023/11/03 07:26:13;;;;;;;10.57;5.25;;;;;;;8.84;81.28;99418.22;5081578;28;20059;-73
2023/11/03 07:28:40;;;;;;;12.40;5.63;;;;;;;8.86;81.37;99426.00;5080031;28;20774;-73
2023/11/03 07:31:11;;;;;;;10.30;5.63;;;;;;;8.86;81.48;99433.81;5076312;28;20048;-73
2023/11/03 07:33:40;;;;;;;11.88;4.10;;;;;;;8.83;81.53;99426.09;5081107;28;20057;-72
2023/11/03 07:36:08;;;;;;;10.85;4.28;;;;;;;8.87;81.43;99428.53;5079173;28;20068;-72
2023/11/03 07:38:35;;;;;;;10.00;4.50;;;;;;;8.88;81.19;99442.41;5080269;28;20072;-74
2023/11/03 07:41:02;;;;;;;9.60;4.07;;;;;;;8.88;81.77;99434.59;5086624;28;20132;-74
2023/11/03 07:43:29;;;;;;;16.48;5.55;;;;;;;8.89;81.62;99436.31;5087374;28;20102;-71
2023/11/03 07:45:56;;;;;;;12.50;4.25;;;;;;;8.89;81.49;99431.94;5085117;28;20102;-72
2023/11/03 07:48:23;;;;;;;7.75;3.85;;;;;;;8.90;81.59;99438.00;5082456;28;20044;-74
2023/11/03 07:50:52;;;;;;;9.10;4.60;;;;;;;8.89;81.29;99431.09;5083469;28;20051;-73
2023/11/03 07:53:19;;;;;;;14.40;5.28;;;;;;;8.92;81.31;99438.81;5080996;28;20131;-73
2023/11/03 07:55:47;;;;;;;6.55;2.85;;;;;;;8.90;81.60;99418.00;5082370;28;20052;-73
2023/11/03 07:58:14;;;;;;;8.88;4.30;;;;;;;8.93;81.41;99411.84;5084085;28;20048;-73
2023/11/03 08:00:42;;;;;;;11.35;5.10;;;;;;;8.92;81.53;99412.78;5084608;28;20053;-74
2023/11/03 08:03:09;;;;;;;12.93;6.00;;;;;;;8.94;81.19;99413.56;5079656;28;20101;-74
2023/11/03 08:05:37;;;;;;;7.35;3.78;;;;;;;8.94;81.70;99390.97;5081569;28;20062;-74
2023/11/03 08:08:07;;;;;;;13.60;4.45;;;;;;;8.94;81.38;99388.38;5088524;28;20552;-74
2023/11/03 08:10:33;;;;;;;8.07;4.28;;;;;;;8.94;81.64;99383.16;5077215;28;20083;-74
2023/11/03 08:13:00;;;;;;;17.88;5.57;;;;;;;8.95;81.54;99365.78;5079241;28;20083;-74
2023/11/03 08:15:27;;;;;;;9.68;3.92;;;;;;;8.95;81.42;99343.19;5077893;28;20054;-73
2023/11/03 08:17:54;;;;;;;11.20;3.90;;;;;;;8.95;81.29;99330.16;5081481;28;20048;-74
2023/11/03 08:20:21;;;;;;;14.05;5.43;;;;;;;8.96;81.35;99312.78;5087913;28;20048;-73
2023/11/03 08:22:49;;;;;;;10.98;5.28;;;;;;;8.96;81.58;99323.19;5081462;28;20048;-73
2023/11/03 08:25:18;;;;;;;12.50;5.18;;;;;;;8.96;81.45;99329.25;5081032;28;20067;-73
2023/11/03 08:27:45;;;;;;;10.25;3.60;;;;;;;8.97;81.63;99328.38;5074138;28;20055;-74
2023/11/03 08:30:12;;;;;;;13.05;5.25;;;;;;;8.98;81.45;99310.97;5074991;28;20055;-73
2023/11/03 08:32:39;;;;;;;9.60;5.00;;;;;;;8.99;81.34;99315.28;5080687;28;20041;-70
2023/11/03 08:35:10;;;;;;;10.52;3.35;;;;;;;9.00;81.65;99314.38;5081401;28;20470;-70
2023/11/03 08:37:36;;;;;;;10.48;5.47;;;;;;;9.00;81.70;99319.59;5087257;28;20128;-71
2023/11/03 08:40:05;;;;;;;8.55;4.75;;;;;;;9.00;81.33;99315.25;5082867;28;20045;-71
2023/11/03 08:42:33;;;;;;;11.68;4.70;;;;;;;9.01;81.66;99316.94;5085397;28;20052;-71
2023/11/03 08:45:00;;;;;;;7.72;3.58;;;;;;;8.98;81.45;99305.78;5076259;28;20055;-70
2023/11/03 08:47:28;;;;;;;11.07;4.57;;;;;;;9.04;81.56;99328.16;5081279;28;20052;-71
2023/11/03 08:49:56;;;;;;;11.55;4.72;;;;;;;9.04;81.32;99342.00;5087115;28;20048;-70
2023/11/03 08:52:23;;;;;;;11.65;4.07;;;;;;;9.06;81.31;99340.22;5080780;28;20093;-70
2023/11/03 08:54:50;;;;;;;10.85;4.38;;;;;;;9.07;81.26;99346.28;5079071;28;20046;-70
2023/11/03 08:57:17;;;;;;;15.18;4.57;;;;;;;9.07;81.20;99339.31;5076759;28;20048;-71
2023/11/03 08:59:47;;;;;;;9.90;3.35;;;;;;;9.08;81.57;99332.34;5084898;28;20044;-70
2023/11/03 09:02:14;;;;;;;10.63;4.03;;;;;;;9.07;81.27;99315.84;5080538;28;20206;-70
2023/11/03 09:04:41;;;;;;;12.20;4.30;;;;;;;9.08;81.45;99317.59;5079716;28;20040;-70
2023/11/03 09:07:09;;;;;;;11.60;4.35;;;;;;;9.09;81.16;99306.25;5073104;28;20415;-70
2023/11/03 09:09:36;;;;;;;9.98;4.07;;;;;;;9.08;81.15;99317.59;5079450;28;20048;-71
2023/11/03 09:12:04;;;;;;;14.05;4.22;;;;;;;9.11;81.06;99327.03;5081041;28;20044;-70
2023/11/03 09:14:31;;;;;;;2.50;1.13;;;;;;;9.11;81.09;99327.88;5080901;28;20098;-70
2023/11/03 09:16:59;;;;;;;9.52;3.90;;;;;;;9.09;81.29;99314.06;5078472;28;20048;-70
2023/11/03 09:19:28;;;;;;;8.05;3.20;;;;;;;9.14;80.79;99326.94;5072335;28;20055;-70
2023/11/03 09:21:54;;;;;;;9.73;3.35;;;;;;;9.13;80.99;99320.00;5081546;28;20052;-72
2023/11/03 09:24:21;;;;;;;8.00;3.83;;;;;;;9.15;80.97;99336.44;5080177;28;20052;-71
2023/11/03 09:26:48;;;;;;;5.70;3.40;;;;;;;9.15;80.96;99337.28;5083736;28;20432;-70
2023/11/03 09:29:15;;;;;;;9.73;3.40;;;;;;;9.16;80.90;99338.13;5073225;28;20135;-71
2023/11/03 09:31:42;;;;;;;10.23;3.50;;;;;;;9.16;80.85;99325.97;5076194;28;20051;-70
2023/11/03 09:34:11;;;;;;;7.03;3.20;;;;;;;9.17;80.44;99321.59;5077068;28;20461;-71
2023/11/03 09:36:38;;;;;;;11.10;3.20;;;;;;;9.16;80.62;99320.75;5073348;28;20052;-71
2023/11/03 09:39:05;;;;;;;6.85;3.50;;;;;;;9.17;80.44;99293.78;5081547;28;20044;-70
2023/11/03 09:41:38;;;;;;;9.60;3.35;;;;;;;9.17;80.54;99266.91;5075542;28;20044;-71
2023/11/03 09:44:06;;;;;;;10.75;3.90;;;;;;;9.16;80.58;99263.44;5075634;28;20132;-69
2023/11/03 09:46:35;;;;;;;8.95;3.10;;;;;;;9.17;80.47;99252.13;5077330;28;20712;-68
2023/11/03 09:49:02;;;;;;;8.98;3.63;;;;;;;9.17;80.66;99239.09;5074653;28;20106;-69
2023/11/03 09:51:31;;;;;;;11.95;3.58;;;;;;;9.19;80.71;99247.69;5079869;28;20040;-69
2023/11/03 09:54:05;;;;;;;8.48;4.13;;;;;;;9.18;80.71;99240.78;5079599;28;20059;-68
2023/11/03 09:56:33;;;;;;;10.75;4.35;;;;;;;9.18;80.82;99227.75;5077717;28;20509;-69
2023/11/03 09:59:02;;;;;;;5.88;3.75;;;;;;;9.18;80.62;99219.94;5085610;28;20056;-68
2023/11/03 10:01:30;;;;;;;6.93;3.00;;;;;;;9.20;80.39;99217.28;5083085;28;20052;-69
2023/11/03 10:03:57;;;;;;;10.38;4.00;;;;;;;9.19;80.60;99224.25;5080164;28;20050;-70
2023/11/03 10:06:25;;;;;;;11.02;4.40;;;;;;;9.19;80.66;99223.38;5078169;28;20059;-69
2023/11/03 10:08:53;;;;;;;10.45;3.78;;;;;;;9.19;80.41;99225.97;5078194;28;20543;-69
2023/11/03 10:11:20;;;;;;;4.22;2.58;;;;;;;9.20;80.69;99236.38;5074897;28;20588;-69
2023/11/03 10:13:47;;;;;;;6.18;3.92;;;;;;;9.20;80.66;99228.53;5078738;28;20048;-69
2023/11/03 10:16:14;;;;;;;8.90;4.18;;;;;;;9.19;80.36;99220.78;5075256;28;20055;-69
2023/11/03 10:18:42;;;;;;;8.75;3.20;;;;;;;9.19;80.76;99206.03;5072049;28;20041;-69
2023/11/03 10:21:09;;;;;;;7.82;2.97;;;;;;;9.20;80.45;99217.28;5075371;28;20211;-68
2023/11/03 10:23:37;;;;;;;10.85;4.38;;;;;;;9.20;80.38;99212.91;5077688;28;20425;-69
2023/11/03 10:26:06;;;;;;;7.85;3.08;;;;;;;9.20;80.29;99218.13;5080694;28;20059;-69
2023/11/03 10:28:35;;;;;;;8.15;2.72;;;;;;;9.20;80.59;99215.53;5085979;28;20071;-70
2023/11/03 10:31:04;;;;;;;8.25;3.83;;;;;;;9.21;80.27;99209.38;5081635;28;20444;-69
2023/11/03 10:33:30;;;;;;;12.27;3.85;;;;;;;9.19;80.32;99211.22;5073305;28;20106;-73
2023/11/03 10:35:57;;;;;;;12.05;3.22;;;;;;;9.20;80.26;99210.31;5074242;28;20055;-72
2023/11/03 10:38:24;;;;;;;6.90;3.70;;;;;;;9.20;80.35;99215.53;5079234;28;20048;-73
2023/11/03 10:40:54;;;;;;;5.47;4.10;;;;;;;9.21;80.64;99213.75;5070909;28;20050;-72
2023/11/03 10:43:26;;;;;;;5.78;2.95;;;;;;;9.20;80.40;99210.31;5078752;28;20088;-72
2023/11/03 10:46:01;;;;;;;14.43;3.63;;;;;;;9.20;80.35;99186.88;5075405;28;20055;-72
2023/11/03 10:48:37;;;;;;;9.00;4.43;;;;;;;9.21;80.15;99182.50;5075966;28;20056;-73
2023/11/03 10:51:08;;;;;;;17.98;4.07;;;;;;;9.21;80.56;99162.50;5079322;28;20044;-72
2023/11/03 10:53:47;;;;;;;11.50;4.13;;;;;;;9.20;80.61;99162.56;5078326;28;20045;-75
2023/11/03 10:56:15;;;;;;;8.05;3.50;;;;;;;9.19;80.63;99164.34;5078008;28;20067;-75
2023/11/03 10:58:45;;;;;;;9.52;3.38;;;;;;;9.19;80.26;99164.34;5080308;28;20044;-76
2023/11/03 11:01:19;;;;;;;10.45;2.80;;;;;;;9.18;80.66;99167.81;5082020;28;20045;-75
2023/11/03 11:03:54;;;;;;;10.53;3.27;;;;;;;9.19;80.68;99177.38;5078098;28;20082;-75
2023/11/03 11:06:28;;;;;;;7.65;3.10;;;;;;;9.18;80.38;99170.44;5081797;28;20112;-77
2023/11/03 11:09:00;;;;;;;6.10;2.80;;;;;;;9.18;80.70;99173.03;5082009;28;20050;-75
2023/11/03 11:11:28;;;;;;;9.20;3.05;;;;;;;9.20;80.63;99176.44;5078986;28;20045;-75
2023/11/03 11:14:17;;;;;;;10.70;3.38;;;;;;;9.18;80.74;99162.63;5079600;28;20113;-75
2023/11/03 11:16:44;;;;;;;8.32;3.10;;;;;;;9.13;80.48;99154.13;5076852;28;20053;-77
2023/11/03 11:19:15;;;;;;;6.53;2.95;;;;;;;9.18;80.74;99151.34;5078544;28;20052;-75
2023/11/03 11:21:50;;;;;;;5.72;3.05;;;;;;;9.16;80.47;99147.94;5077095;28;20743;-76
2023/11/03 11:24:21;;;;;;;9.35;3.38;;;;;;;9.17;80.99;99158.31;5077070;28;20059;-76
2023/11/03 11:26:49;;;;;;;10.15;4.53;;;;;;;9.16;80.64;99155.75;5080749;28;20056;-76
2023/11/03 11:29:30;;;;;;;14.48;3.30;;;;;;;9.16;80.57;99154.03;5083224;28;20531;-76
2023/11/03 11:32:06;;;;;;;7.18;4.35;;;;;;;9.15;80.94;99147.09;5077299;28;20049;-76
2023/11/03 11:34:33;;;;;;;8.57;3.42;;;;;;;9.15;80.88;99147.09;5085346;28;20052;-76
2023/11/03 11:37:21;;;;;;;6.72;3.20;;;;;;;9.15;80.97;99134.09;5085676;28;20044;-75
2023/11/03 11:39:49;;;;;;;6.45;3.05;;;;;;;9.14;80.62;99135.00;5081578;28;20052;-77